sensor_id;sensor_type;location;lat;lon;timestamp;pressure;altitude;pressure_sealevel;temperature;humidity
23733;BME280;12047;53.450;-2.286;2022-10-22T00:36:42;99572.28;;;27.89;95.67
23733;BME280;12047;53.450;-2.286;2022-10-22T00:41:45;99580.47;;;27.79;96.84
23733;BME280;12047;53.450;-2.286;2022-10-22T00:47:04;99583.28;;;27.43;98.75
23733;BME280;12047;53.450;-2.286;2022-10-22T00:58:19;99590.13;;;26.70;100.00
23733;BME280;12047;53.450;-2.286;2022-10-22T01:03:53;99598.00;;;26.87;100.00
23733;BME280;12047;53.450;-2.286;2022-10-22T01:14:28;99609.91;;;27.67;96.21
23733;BME280;12047;53.450;-2.286;2022-10-22T01:31:50;99642.72;;;28.01;94.47
23733;BME280;12047;53.450;-2.286;2022-10-22T01:36:56;99640.94;;;27.71;94.56
23733;BME280;12047;53.450;-2.286;2022-10-22T01:42:19;99655.91;;;27.43;93.83
23733;BME280;12047;53.450;-2.286;2022-10-22T01:47:45;99656.22;;;27.16;94.85
23733;BME280;12047;53.450;-2.286;2022-10-22T01:59:52;99662.72;;;27.30;96.16
23733;BME280;12047;53.450;-2.286;2022-10-22T02:11:21;99681.41;;;26.66;96.06
23733;BME280;12047;53.450;-2.286;2022-10-22T02:22:30;99691.94;;;26.42;98.89
23733;BME280;12047;53.450;-2.286;2022-10-22T02:34:10;99710.03;;;26.26;97.97
23733;BME280;12047;53.450;-2.286;2022-10-22T03:10:34;99751.84;;;26.88;92.59
23733;BME280;12047;53.450;-2.286;2022-10-22T03:15:36;99759.97;;;26.83;92.97
23733;BME280;12047;53.450;-2.286;2022-10-22T03:26:35;99787.38;;;26.66;94.54
23733;BME280;12047;53.450;-2.286;2022-10-22T03:32:01;99800.06;;;26.45;97.21
23733;BME280;12047;53.450;-2.286;2022-10-22T03:37:07;99806.94;;;25.84;100.00
23733;BME280;12047;53.450;-2.286;2022-10-22T03:54:15;99829.81;;;25.93;100.00
23733;BME280;12047;53.450;-2.286;2022-10-22T03:59:44;99845.09;;;26.04;100.00
23733;BME280;12047;53.450;-2.286;2022-10-22T04:04:55;99847.53;;;25.68;100.00
23733;BME280;12047;53.450;-2.286;2022-10-22T04:10:06;99854.09;;;26.09;100.00
23733;BME280;12047;53.450;-2.286;2022-10-22T04:15:12;99859.19;;;26.85;97.35
23733;BME280;12047;53.450;-2.286;2022-10-22T04:20:16;99880.91;;;26.33;98.29
23733;BME280;12047;53.450;-2.286;2022-10-22T04:25:16;99883.31;;;25.65;100.00
23733;BME280;12047;53.450;-2.286;2022-10-22T04:30:18;99887.69;;;26.77;98.41
23733;BME280;12047;53.450;-2.286;2022-10-22T04:35:38;99894.94;;;26.62;97.51
23733;BME280;12047;53.450;-2.286;2022-10-22T04:40:39;99902.81;;;26.63;97.36
23733;BME280;12047;53.450;-2.286;2022-10-22T04:45:40;99906.09;;;27.23;92.37
23733;BME280;12047;53.450;-2.286;2022-10-22T04:50:42;99918.03;;;25.41;96.35
23733;BME280;12047;53.450;-2.286;2022-10-22T04:55:44;99917.66;;;26.46;91.96
23733;BME280;12047;53.450;-2.286;2022-10-22T05:00:47;99926.47;;;25.94;91.74
23733;BME280;12047;53.450;-2.286;2022-10-22T05:05:48;99936.22;;;25.19;91.69
23733;BME280;12047;53.450;-2.286;2022-10-22T05:10:49;99939.47;;;25.92;89.14
23733;BME280;12047;53.450;-2.286;2022-10-22T05:21:42;99951.69;;;24.47;89.16
23733;BME280;12047;53.450;-2.286;2022-10-22T05:27:03;99956.19;;;24.58;88.35
23733;BME280;12047;53.450;-2.286;2022-10-22T05:38:06;99978.63;;;24.08;88.51
23733;BME280;12047;53.450;-2.286;2022-10-22T05:43:27;99983.44;;;24.34;88.99
23733;BME280;12047;53.450;-2.286;2022-10-22T05:48:28;99991.56;;;24.51;87.49
23733;BME280;12047;53.450;-2.286;2022-10-22T05:53:30;100007.06;;;23.65;87.81
23733;BME280;12047;53.450;-2.286;2022-10-22T05:58:32;100010.13;;;24.14;85.71
23733;BME280;12047;53.450;-2.286;2022-10-22T06:03:33;100015.34;;;24.83;84.82
23733;BME280;12047;53.450;-2.286;2022-10-22T06:08:33;100029.78;;;23.93;85.54
23733;BME280;12047;53.450;-2.286;2022-10-22T06:13:34;100042.88;;;24.74;83.54
23733;BME280;12047;53.450;-2.286;2022-10-22T06:18:35;100048.22;;;23.67;84.13
23733;BME280;12047;53.450;-2.286;2022-10-22T06:23:36;100050.81;;;24.81;83.58
23733;BME280;12047;53.450;-2.286;2022-10-22T06:28:37;100043.91;;;24.40;84.05
23733;BME280;12047;53.450;-2.286;2022-10-22T06:33:38;100050.41;;;25.23;82.35
23733;BME280;12047;53.450;-2.286;2022-10-22T06:38:42;100060.91;;;25.02;81.38
23733;BME280;12047;53.450;-2.286;2022-10-22T06:43:43;100069.19;;;24.79;81.54
23733;BME280;12047;53.450;-2.286;2022-10-22T06:48:50;100083.00;;;24.77;81.08
23733;BME280;12047;53.450;-2.286;2022-10-22T06:53:52;100085.38;;;25.24;81.02
23733;BME280;12047;53.450;-2.286;2022-10-22T06:58:54;100091.22;;;24.09;83.81
23733;BME280;12047;53.450;-2.286;2022-10-22T07:03:58;100099.28;;;24.32;84.13
23733;BME280;12047;53.450;-2.286;2022-10-22T07:08:59;100099.34;;;24.66;83.08
23733;BME280;12047;53.450;-2.286;2022-10-22T07:13:59;100112.97;;;24.88;82.02
23733;BME280;12047;53.450;-2.286;2022-10-22T07:19:01;100114.41;;;24.45;83.34
23733;BME280;12047;53.450;-2.286;2022-10-22T07:24:01;100131.38;;;25.02;81.66
23733;BME280;12047;53.450;-2.286;2022-10-22T07:29:03;100160.44;;;24.90;81.62
23733;BME280;12047;53.450;-2.286;2022-10-22T07:34:04;100157.50;;;25.08;79.28
23733;BME280;12047;53.450;-2.286;2022-10-22T07:39:04;100167.88;;;24.66;80.90
23733;BME280;12047;53.450;-2.286;2022-10-22T07:44:05;100170.22;;;25.58;79.92
23733;BME280;12047;53.450;-2.286;2022-10-22T07:49:06;100173.63;;;24.98;80.90
23733;BME280;12047;53.450;-2.286;2022-10-22T07:54:06;100186.25;;;23.72;82.99
23733;BME280;12047;53.450;-2.286;2022-10-22T07:59:07;100198.34;;;23.82;81.85
23733;BME280;12047;53.450;-2.286;2022-10-22T08:04:07;100204.19;;;24.82;81.88
23733;BME280;12047;53.450;-2.286;2022-10-22T08:09:10;100210.72;;;24.41;80.17
23733;BME280;12047;53.450;-2.286;2022-10-22T08:14:11;100215.59;;;24.27;83.27
23733;BME280;12047;53.450;-2.286;2022-10-22T08:19:12;100223.81;;;24.32;80.54
23733;BME280;12047;53.450;-2.286;2022-10-22T08:24:20;100241.31;;;25.10;79.53
23733;BME280;12047;53.450;-2.286;2022-10-22T08:29:22;100246.91;;;25.37;79.39
23733;BME280;12047;53.450;-2.286;2022-10-22T08:34:23;100243.66;;;25.68;78.19
23733;BME280;12047;53.450;-2.286;2022-10-22T08:39:23;100254.13;;;25.31;79.05
23733;BME280;12047;53.450;-2.286;2022-10-22T08:50:01;100256.06;;;24.46;79.75
23733;BME280;12047;53.450;-2.286;2022-10-22T08:55:02;100265.31;;;25.18;78.90
23733;BME280;12047;53.450;-2.286;2022-10-22T09:00:32;100284.41;;;25.40;78.54
23733;BME280;12047;53.450;-2.286;2022-10-22T09:10:54;100285.22;;;25.40;78.66
23733;BME280;12047;53.450;-2.286;2022-10-22T09:16:30;100293.41;;;25.29;80.16
23733;BME280;12047;53.450;-2.286;2022-10-22T09:26:52;100301.56;;;25.00;80.20
23733;BME280;12047;53.450;-2.286;2022-10-22T09:31:55;100307.78;;;26.30;77.61
23733;BME280;12047;53.450;-2.286;2022-10-22T09:37:03;100300.41;;;26.08;77.33
23733;BME280;12047;53.450;-2.286;2022-10-22T09:42:16;100307.94;;;26.62;77.27
23733;BME280;12047;53.450;-2.286;2022-10-22T10:04:48;100318.94;;;25.95;79.25
23733;BME280;12047;53.450;-2.286;2022-10-22T10:10:05;100322.03;;;26.59;77.87
23733;BME280;12047;53.450;-2.286;2022-10-22T10:43:51;100383.75;;;27.29;74.63
23733;BME280;12047;53.450;-2.286;2022-10-22T10:49:07;100398.31;;;28.30;72.48
23733;BME280;12047;53.450;-2.286;2022-10-22T11:00:07;100391.44;;;29.32;71.15
23733;BME280;12047;53.450;-2.286;2022-10-22T11:05:40;100397.03;;;28.85;71.92
23733;BME280;12047;53.450;-2.286;2022-10-22T11:16:24;100400.63;;;27.80;72.65
23733;BME280;12047;53.450;-2.286;2022-10-22T11:21:40;100402.88;;;27.34;74.71
23733;BME280;12047;53.450;-2.286;2022-10-22T11:26:53;100413.31;;;28.01;72.69
23733;BME280;12047;53.450;-2.286;2022-10-22T11:31:56;100406.19;;;27.63;72.53
23733;BME280;12047;53.450;-2.286;2022-10-22T11:37:08;100414.44;;;29.57;71.28
23733;BME280;12047;53.450;-2.286;2022-10-22T11:42:57;100412.53;;;29.42;73.03
23733;BME280;12047;53.450;-2.286;2022-10-22T11:48:06;100414.63;;;29.25;73.36
23733;BME280;12047;53.450;-2.286;2022-10-22T11:53:55;100420.56;;;27.85;76.27
23733;BME280;12047;53.450;-2.286;2022-10-22T11:59:38;100413.41;;;25.36;79.41
23733;BME280;12047;53.450;-2.286;2022-10-22T12:04:41;100412.44;;;27.15;77.27
23733;BME280;12047;53.450;-2.286;2022-10-22T12:09:42;100416.59;;;28.03;80.04
23733;BME280;12047;53.450;-2.286;2022-10-22T12:14:54;100413.72;;;27.07;76.03
23733;BME280;12047;53.450;-2.286;2022-10-22T12:20:28;100411.44;;;27.48;79.39
23733;BME280;12047;53.450;-2.286;2022-10-22T12:25:32;100407.44;;;28.14;77.10
23733;BME280;12047;53.450;-2.286;2022-10-22T12:30:36;100404.03;;;28.76;76.15
23733;BME280;12047;53.450;-2.286;2022-10-22T12:35:42;100396.41;;;27.40;76.84
23733;BME280;12047;53.450;-2.286;2022-10-22T12:40:43;100389.03;;;26.70;79.75
23733;BME280;12047;53.450;-2.286;2022-10-22T12:45:49;100396.00;;;29.06;75.75
23733;BME280;12047;53.450;-2.286;2022-10-22T12:50:57;100400.06;;;28.99;74.35
23733;BME280;12047;53.450;-2.286;2022-10-22T12:56:08;100402.44;;;29.42;74.25
23733;BME280;12047;53.450;-2.286;2022-10-22T13:01:20;100397.59;;;28.97;74.45
23733;BME280;12047;53.450;-2.286;2022-10-22T13:06:24;100392.59;;;28.79;74.12
23733;BME280;12047;53.450;-2.286;2022-10-22T13:11:33;100386.22;;;29.16;73.43
23733;BME280;12047;53.450;-2.286;2022-10-22T13:16:39;100385.69;;;29.14;74.22
23733;BME280;12047;53.450;-2.286;2022-10-22T13:21:50;100395.09;;;29.94;73.77
23733;BME280;12047;53.450;-2.286;2022-10-22T13:27:08;100392.13;;;28.40;74.55
23733;BME280;12047;53.450;-2.286;2022-10-22T13:37:54;100398.66;;;27.75;76.75
23733;BME280;12047;53.450;-2.286;2022-10-22T13:42:56;100406.63;;;27.55;76.90
23733;BME280;12047;53.450;-2.286;2022-10-22T13:47:57;100406.81;;;27.70;78.15
23733;BME280;12047;53.450;-2.286;2022-10-22T13:52:58;100404.06;;;28.02;76.44
23733;BME280;12047;53.450;-2.286;2022-10-22T13:58:20;100402.50;;;28.90;75.12
23733;BME280;12047;53.450;-2.286;2022-10-22T14:03:32;100412.34;;;29.01;73.61
23733;BME280;12047;53.450;-2.286;2022-10-22T14:08:34;100406.06;;;28.96;73.72
23733;BME280;12047;53.450;-2.286;2022-10-22T14:13:35;100413.47;;;28.16;73.68
23733;BME280;12047;53.450;-2.286;2022-10-22T14:18:40;100415.44;;;28.63;73.02
23733;BME280;12047;53.450;-2.286;2022-10-22T14:23:43;100422.44;;;28.17;73.06
23733;BME280;12047;53.450;-2.286;2022-10-22T14:28:50;100424.16;;;29.17;72.63
23733;BME280;12047;53.450;-2.286;2022-10-22T14:33:50;100415.69;;;28.61;72.60
23733;BME280;12047;53.450;-2.286;2022-10-22T14:39:17;100417.97;;;27.47;73.54
23733;BME280;12047;53.450;-2.286;2022-10-22T14:50:07;100418.97;;;28.63;69.95
23733;BME280;12047;53.450;-2.286;2022-10-22T14:55:16;100430.97;;;28.20;69.18
23733;BME280;12047;53.450;-2.286;2022-10-22T15:01:20;100430.41;;;29.13;68.13
23733;BME280;12047;53.450;-2.286;2022-10-22T15:06:22;100419.78;;;29.21;67.28
23733;BME280;12047;53.450;-2.286;2022-10-22T15:11:36;100432.47;;;28.43;68.77
23733;BME280;12047;53.450;-2.286;2022-10-22T15:16:39;100430.38;;;28.55;69.18
23733;BME280;12047;53.450;-2.286;2022-10-22T15:21:46;100420.69;;;27.68;71.06
23733;BME280;12047;53.450;-2.286;2022-10-22T15:32:27;100426.34;;;28.21;73.26
23733;BME280;12047;53.450;-2.286;2022-10-22T15:43:18;100422.44;;;28.54;71.43
23733;BME280;12047;53.450;-2.286;2022-10-22T15:54:36;100422.66;;;27.78;73.89
23733;BME280;12047;53.450;-2.286;2022-10-22T15:59:45;100430.09;;;28.20;72.40
23733;BME280;12047;53.450;-2.286;2022-10-22T16:04:47;100415.44;;;27.13;74.56
23733;BME280;12047;53.450;-2.286;2022-10-22T16:10:04;100411.94;;;28.30;71.88
23733;BME280;12047;53.450;-2.286;2022-10-22T16:15:41;100418.28;;;28.41;73.68
23733;BME280;12047;53.450;-2.286;2022-10-22T16:38:59;100436.28;;;28.10;71.09
23733;BME280;12047;53.450;-2.286;2022-10-22T16:44:18;100435.41;;;28.04;72.29
23733;BME280;12047;53.450;-2.286;2022-10-22T16:49:44;100435.88;;;27.64;72.46
23733;BME280;12047;53.450;-2.286;2022-10-22T16:55:49;100437.69;;;27.10;73.55
23733;BME280;12047;53.450;-2.286;2022-10-22T17:06:25;100438.19;;;28.47;81.33
23733;BME280;12047;53.450;-2.286;2022-10-22T17:11:29;100449.38;;;29.44;83.46
23733;BME280;12047;53.450;-2.286;2022-10-22T17:34:59;100468.13;;;26.90;77.50
23733;BME280;12047;53.450;-2.286;2022-10-22T17:52:37;100493.41;;;27.29;76.37
23733;BME280;12047;53.450;-2.286;2022-10-22T18:10:15;100497.31;;;26.78;77.49
23733;BME280;12047;53.450;-2.286;2022-10-22T18:27:02;100496.81;;;26.14;79.12
23733;BME280;12047;53.450;-2.286;2022-10-22T18:38:23;100494.03;;;27.36;79.10
23733;BME280;12047;53.450;-2.286;2022-10-22T18:54:41;100494.94;;;27.42;79.56
23733;BME280;12047;53.450;-2.286;2022-10-22T18:59:44;100500.50;;;26.08;83.05
23733;BME280;12047;53.450;-2.286;2022-10-22T19:11:27;100511.59;;;24.21;90.74
23733;BME280;12047;53.450;-2.286;2022-10-22T19:17:15;100507.91;;;25.16;90.30
23733;BME280;12047;53.450;-2.286;2022-10-22T19:22:15;100495.44;;;27.39;85.78
23733;BME280;12047;53.450;-2.286;2022-10-22T19:27:36;100497.09;;;25.84;87.26
23733;BME280;12047;53.450;-2.286;2022-10-22T19:32:58;100512.59;;;26.46;86.87
23733;BME280;12047;53.450;-2.286;2022-10-22T20:39:14;100492.47;;;25.68;100.00
23733;BME280;12047;53.450;-2.286;2022-10-22T20:44:26;100498.56;;;26.20;97.11
23733;BME280;12047;53.450;-2.286;2022-10-22T20:49:44;100499.88;;;26.18;99.43
23733;BME280;12047;53.450;-2.286;2022-10-22T22:12:51;100489.47;;;25.41;100.00
23733;BME280;12047;53.450;-2.286;2022-10-22T22:18:17;100494.47;;;24.51;100.00
23733;BME280;12047;53.450;-2.286;2022-10-22T22:23:20;100488.75;;;24.17;100.00
23733;BME280;12047;53.450;-2.286;2022-10-22T22:28:34;100496.16;;;26.74;100.00
23733;BME280;12047;53.450;-2.286;2022-10-22T22:39:52;100481.59;;;26.63;100.00
23733;BME280;12047;53.450;-2.286;2022-10-22T22:51:02;100479.59;;;26.75;100.00
23733;BME280;12047;53.450;-2.286;2022-10-22T22:56:48;100476.59;;;24.96;100.00
23733;BME280;12047;53.450;-2.286;2022-10-22T23:01:50;100476.56;;;27.54;99.30
23733;BME280;12047;53.450;-2.286;2022-10-22T23:07:15;100480.00;;;26.46;100.00
23733;BME280;12047;53.450;-2.286;2022-10-22T23:12:19;100473.63;;;26.57;100.00
23733;BME280;12047;53.450;-2.286;2022-10-22T23:23:14;100466.28;;;26.24;100.00
23733;BME280;12047;53.450;-2.286;2022-10-22T23:28:50;100458.88;;;26.19;100.00
23733;BME280;12047;53.450;-2.286;2022-10-22T23:33:52;100452.53;;;27.02;100.00
23733;BME280;12047;53.450;-2.286;2022-10-22T23:38:53;100454.69;;;27.22;100.00
23733;BME280;12047;53.450;-2.286;2022-10-22T23:43:57;100449.53;;;27.21;99.13
23733;BME280;12047;53.450;-2.286;2022-10-22T23:49:00;100448.59;;;26.93;100.00
23733;BME280;12047;53.450;-2.286;2022-10-22T23:54:34;100441.94;;;26.84;100.00
